createdAt,value
2018-07-15T00:01:25.062Z,5.30
2018-07-15T00:03:53.481Z,5.27
2018-07-15T00:06:21.941Z,6.03
2018-07-15T00:08:50.426Z,5.43
2018-07-15T00:11:18.906Z,5.70
2018-07-15T00:13:47.348Z,5.43
2018-07-15T00:16:15.806Z,5.43
2018-07-15T00:18:44.786Z,6.33
2018-07-15T00:21:13.314Z,6.10
2018-07-15T00:23:41.777Z,5.20
2018-07-15T00:26:10.222Z,6.00
2018-07-15T00:28:38.682Z,5.90
2018-07-15T00:31:07.130Z,5.40
2018-07-15T00:33:35.588Z,6.10
2018-07-15T00:36:04.088Z,5.70
2018-07-15T00:38:32.547Z,5.47
2018-07-15T00:41:00.982Z,5.33
2018-07-15T00:43:29.515Z,5.47
2018-07-15T00:45:57.954Z,5.47
2018-07-15T00:48:26.431Z,5.63
2018-07-15T00:50:54.865Z,5.53
2018-07-15T00:53:23.361Z,5.13
2018-07-15T00:55:51.805Z,5.83
2018-07-15T00:58:20.214Z,5.80
2018-07-15T01:00:54.028Z,6.00
2018-07-15T01:03:22.485Z,6.30
2018-07-15T01:05:51.001Z,6.30
2018-07-15T01:08:19.393Z,6.00
2018-07-15T01:10:47.803Z,6.97
2018-07-15T01:13:16.222Z,7.30
2018-07-15T01:15:44.619Z,6.53
2018-07-15T01:18:13.140Z,6.20
2018-07-15T01:20:41.670Z,6.40
2018-07-15T01:23:10.089Z,6.30
2018-07-15T01:25:38.501Z,5.93
2018-07-15T01:28:07.023Z,6.70
2018-07-15T01:30:35.522Z,6.33
2018-07-15T01:33:04.014Z,5.87
2018-07-15T01:35:32.429Z,6.03
2018-07-15T01:38:00.921Z,5.67
2018-07-15T01:40:29.308Z,5.60
2018-07-15T01:42:57.742Z,5.40
2018-07-15T01:45:26.242Z,5.77
2018-07-15T01:47:54.665Z,5.77
2018-07-15T01:50:23.070Z,6.27
2018-07-15T01:52:51.641Z,6.37
2018-07-15T01:55:20.081Z,6.20
2018-07-15T01:57:48.685Z,5.80
2018-07-15T02:00:17.074Z,6.40
2018-07-15T02:02:45.522Z,6.00
2018-07-15T02:05:13.925Z,6.23
2018-07-15T02:07:42.402Z,6.60
2018-07-15T02:10:10.899Z,6.50
2018-07-15T02:12:39.242Z,6.13
2018-07-15T02:15:07.681Z,6.20
2018-07-15T02:17:36.194Z,5.80
2018-07-15T02:20:04.657Z,5.77
2018-07-15T02:22:33.058Z,6.00
2018-07-15T02:25:01.459Z,5.97
2018-07-15T02:27:29.905Z,6.40
2018-07-15T02:29:58.365Z,6.50
2018-07-15T02:32:26.770Z,6.33
2018-07-15T02:34:55.206Z,6.07
2018-07-15T02:37:23.606Z,6.43
2018-07-15T02:39:52.042Z,6.30
2018-07-15T02:42:20.517Z,6.33
2018-07-15T02:44:48.887Z,5.83
2018-07-15T02:47:17.408Z,5.40
2018-07-15T02:49:45.905Z,5.50
2018-07-15T02:52:14.409Z,5.47
2018-07-15T02:54:42.878Z,6.07
2018-07-15T02:57:11.276Z,6.20
2018-07-15T02:59:39.685Z,5.73
2018-07-15T03:02:08.079Z,6.53
2018-07-15T03:04:36.533Z,6.10
2018-07-15T03:07:04.954Z,6.17
2018-07-15T03:09:33.380Z,6.50
2018-07-15T03:12:01.846Z,6.93
2018-07-15T03:14:30.269Z,7.40
2018-07-15T03:16:58.670Z,6.33
2018-07-15T03:19:27.133Z,6.60
2018-07-15T03:21:55.669Z,6.90
2018-07-15T03:24:24.093Z,6.77
2018-07-15T03:26:52.490Z,7.07
2018-07-15T03:29:20.962Z,6.90
2018-07-15T03:31:49.350Z,7.13
2018-07-15T03:34:17.780Z,7.37
2018-07-15T03:36:46.210Z,7.10
2018-07-15T03:39:14.713Z,6.40
2018-07-15T03:41:43.138Z,7.10
2018-07-15T03:44:11.569Z,6.80
2018-07-15T03:46:40.054Z,8.23
2018-07-15T03:49:08.450Z,6.80
2018-07-15T03:51:36.909Z,6.97
2018-07-15T03:54:05.393Z,7.37
2018-07-15T03:56:33.796Z,6.67
2018-07-15T03:59:02.276Z,7.20
2018-07-15T04:01:30.740Z,6.27
2018-07-15T04:03:59.156Z,6.77
2018-07-15T04:06:27.590Z,6.93
2018-07-15T04:08:56.119Z,6.43
2018-07-15T04:11:24.603Z,7.30
2018-07-15T04:13:53.322Z,6.77
2018-07-15T04:16:21.792Z,7.93
2018-07-15T04:18:50.296Z,7.53
2018-07-15T04:21:18.803Z,8.07
2018-07-15T04:23:47.253Z,7.33
2018-07-15T04:26:15.694Z,7.17
2018-07-15T04:28:44.114Z,6.97
2018-07-15T04:31:12.566Z,7.73
2018-07-15T04:33:41.032Z,7.77
2018-07-15T04:36:09.430Z,7.20
2018-07-15T04:38:37.850Z,7.03
2018-07-15T04:41:06.411Z,7.33
2018-07-15T04:43:34.809Z,7.73
2018-07-15T04:46:03.310Z,6.90
2018-07-15T04:48:31.729Z,7.03
2018-07-15T04:51:00.190Z,7.30
2018-07-15T04:53:28.582Z,6.90
2018-07-15T04:55:57.058Z,7.60
2018-07-15T04:58:25.477Z,7.20
2018-07-15T05:00:53.946Z,6.67
2018-07-15T05:03:22.383Z,6.83
2018-07-15T05:05:51.385Z,7.27
2018-07-15T05:08:19.897Z,7.10
2018-07-15T05:10:48.353Z,6.87
2018-07-15T05:13:16.857Z,6.73
2018-07-15T05:15:45.301Z,6.87
2018-07-15T05:18:13.748Z,7.50
2018-07-15T05:20:42.193Z,7.37
2018-07-15T05:23:11.238Z,7.40
2018-07-15T05:25:39.719Z,7.03
2018-07-15T05:28:08.138Z,7.87
2018-07-15T05:30:36.597Z,7.87
2018-07-15T05:33:05.030Z,7.53
2018-07-15T05:35:33.502Z,7.20
2018-07-15T05:38:01.986Z,7.83
2018-07-15T05:40:30.457Z,7.00
2018-07-15T05:42:58.894Z,7.67
2018-07-15T05:45:27.414Z,8.13
2018-07-15T05:47:55.910Z,8.03
2018-07-15T05:50:24.382Z,8.50
2018-07-15T05:52:52.889Z,7.60
2018-07-15T05:55:21.377Z,8.10
2018-07-15T05:57:49.790Z,7.97
2018-07-15T06:00:18.265Z,7.17
2018-07-15T06:02:46.669Z,8.50
2018-07-15T06:05:15.091Z,8.17
2018-07-15T06:07:43.502Z,8.00
2018-07-15T06:10:11.990Z,7.47
2018-07-15T06:12:40.397Z,7.77
2018-07-15T06:15:08.858Z,8.33
2018-07-15T06:17:37.296Z,7.90
2018-07-15T06:20:06.827Z,8.83
2018-07-15T06:22:35.295Z,8.00
2018-07-15T06:25:03.750Z,7.70
2018-07-15T06:27:32.183Z,8.20
2018-07-15T06:30:00.613Z,8.30
2018-07-15T06:32:29.034Z,7.80
2018-07-15T06:34:57.437Z,9.00
2018-07-15T06:37:25.897Z,7.97
2018-07-15T06:39:54.417Z,8.87
2018-07-15T06:42:22.837Z,7.90
2018-07-15T06:44:51.328Z,7.33
2018-07-15T06:47:19.797Z,8.30
2018-07-15T06:49:48.290Z,7.80
2018-07-15T06:52:16.758Z,8.43
2018-07-15T06:54:45.212Z,8.47
2018-07-15T06:57:13.683Z,7.83
2018-07-15T06:59:42.202Z,7.57
2018-07-15T07:02:10.676Z,7.83
2018-07-15T07:04:39.394Z,8.00
2018-07-15T07:07:07.946Z,8.13
2018-07-15T07:09:36.345Z,7.90
2018-07-15T07:12:04.929Z,7.63
2018-07-15T07:14:33.353Z,7.93
2018-07-15T07:17:01.849Z,7.77
2018-07-15T07:19:30.499Z,7.27
2018-07-15T07:21:58.930Z,7.10
2018-07-15T07:24:27.396Z,8.43
2018-07-15T07:26:55.829Z,7.93
2018-07-15T07:29:24.249Z,7.27
2018-07-15T07:31:52.685Z,7.23
2018-07-15T07:34:21.092Z,8.00
2018-07-15T07:36:49.525Z,7.90
2018-07-15T07:39:17.906Z,7.73
2018-07-15T07:41:46.399Z,8.40
2018-07-15T07:44:14.820Z,7.27
2018-07-15T07:46:43.298Z,7.40
2018-07-15T07:49:11.710Z,7.20
2018-07-15T07:51:40.161Z,7.60
2018-07-15T07:54:08.626Z,7.43
2018-07-15T07:56:37.264Z,7.40
2018-07-15T07:59:05.772Z,7.10
2018-07-15T08:01:34.262Z,7.03
2018-07-15T08:04:02.666Z,7.20
2018-07-15T08:06:31.077Z,7.03
2018-07-15T08:08:59.514Z,7.20
2018-07-15T08:11:27.937Z,6.80
2018-07-15T08:13:56.333Z,7.03
2018-07-15T08:16:24.815Z,6.93
2018-07-15T08:18:53.421Z,6.27
2018-07-15T08:21:21.862Z,7.00
2018-07-15T08:23:50.331Z,7.17
2018-07-15T08:26:18.774Z,6.80
2018-07-15T08:28:47.206Z,6.80
2018-07-15T08:31:18.857Z,6.17
2018-07-15T08:33:47.240Z,7.00
2018-07-15T08:36:15.699Z,6.30
2018-07-15T08:38:44.569Z,6.30
2018-07-15T08:41:14.002Z,5.77
2018-07-15T08:43:42.484Z,5.17
2018-07-15T08:46:11.105Z,5.47
2018-07-15T08:48:39.546Z,5.50
2018-07-15T08:51:11.152Z,5.43
2018-07-15T08:53:39.648Z,5.20
2018-07-15T08:56:08.243Z,5.00
2018-07-15T08:58:36.709Z,4.90
2018-07-15T09:01:05.322Z,4.40
2018-07-15T09:03:33.766Z,3.87
2018-07-15T09:06:02.424Z,3.80
2018-07-15T09:08:30.979Z,4.77
2018-07-15T09:10:59.690Z,4.60
2018-07-15T09:13:28.668Z,4.30
2018-07-15T09:15:57.230Z,4.20
2018-07-15T09:18:25.728Z,4.40
2018-07-15T09:20:54.174Z,4.07
2018-07-15T09:23:22.649Z,4.20
2018-07-15T09:25:51.121Z,3.50
2018-07-15T09:28:19.975Z,3.87
2018-07-15T09:30:48.438Z,3.33
2018-07-15T09:33:17.231Z,3.30
2018-07-15T09:35:45.909Z,3.80
2018-07-15T09:38:14.407Z,3.50
2018-07-15T09:40:42.933Z,3.60
2018-07-15T09:43:11.446Z,3.57
2018-07-15T09:45:39.949Z,4.03
2018-07-15T09:48:08.499Z,3.70
2018-07-15T09:50:37.030Z,4.13
2018-07-15T09:53:05.603Z,4.50
2018-07-15T09:55:34.130Z,4.67
2018-07-15T09:58:02.674Z,4.40
2018-07-15T10:01:05.779Z,3.73
2018-07-15T10:03:34.258Z,4.13
2018-07-15T10:06:02.686Z,4.30
2018-07-15T10:08:31.180Z,3.43
2018-07-15T10:10:59.709Z,3.20
2018-07-15T10:13:28.218Z,3.67
2018-07-15T10:15:56.784Z,3.30
2018-07-15T10:18:26.313Z,3.40
2018-07-15T10:20:54.749Z,3.20
2018-07-15T10:23:23.240Z,3.80
2018-07-15T10:25:51.817Z,3.80
2018-07-15T10:28:20.482Z,3.33
2018-07-15T10:30:48.962Z,3.80
2018-07-15T10:33:17.493Z,3.37
2018-07-15T10:35:45.868Z,5.00
2018-07-15T10:38:14.708Z,4.23
2018-07-15T10:40:43.114Z,4.97
2018-07-15T10:43:11.626Z,4.30
2018-07-15T10:45:40.119Z,4.00
2018-07-15T10:48:08.643Z,3.53
2018-07-15T10:50:37.101Z,3.50
2018-07-15T10:53:06.724Z,3.30
2018-07-15T10:55:35.193Z,3.43
2018-07-15T10:58:03.671Z,3.70
2018-07-15T11:00:32.244Z,3.73
2018-07-15T11:03:00.810Z,3.87
2018-07-15T11:05:29.310Z,3.40
2018-07-15T11:07:57.798Z,3.37
2018-07-15T11:10:26.277Z,3.13
2018-07-15T11:12:54.852Z,3.50
2018-07-15T11:15:23.393Z,3.20
2018-07-15T11:17:51.939Z,3.10
2018-07-15T11:20:20.424Z,3.47
2018-07-15T11:22:48.886Z,3.10
2018-07-15T11:25:17.374Z,2.90
2018-07-15T11:27:45.967Z,3.13
2018-07-15T11:30:14.513Z,3.00
2018-07-15T11:32:49.594Z,3.00
2018-07-15T11:35:21.750Z,2.90
2018-07-15T11:37:50.345Z,3.20
2018-07-15T11:40:18.878Z,3.27
2018-07-15T11:42:47.435Z,3.17
2018-07-15T11:45:15.954Z,3.17
2018-07-15T11:47:44.434Z,2.90
2018-07-15T11:50:13.004Z,3.02
2018-07-15T11:52:41.518Z,3.17
2018-07-15T11:55:10.163Z,3.15
2018-07-15T11:57:38.712Z,2.87
2018-07-15T12:00:08.176Z,2.93
2018-07-15T12:02:36.690Z,3.15
2018-07-15T12:05:05.289Z,3.00
2018-07-15T12:07:34.512Z,2.90
2018-07-15T12:10:03.097Z,2.97
2018-07-15T12:12:31.677Z,2.80
2018-07-15T12:15:00.295Z,2.62
2018-07-15T12:17:29.258Z,2.80
2018-07-15T12:19:57.798Z,2.40
2018-07-15T12:22:26.261Z,2.50
2018-07-15T12:24:54.718Z,2.58
2018-07-15T12:27:23.340Z,2.40
2018-07-15T12:29:51.838Z,2.70
2018-07-15T12:32:20.335Z,2.58
2018-07-15T12:34:48.837Z,2.25
2018-07-15T12:37:25.830Z,2.50
2018-07-15T12:39:54.357Z,2.70
2018-07-15T12:42:22.817Z,2.52
2018-07-15T12:44:51.341Z,2.92
2018-07-15T12:47:19.869Z,3.33
2018-07-15T12:49:48.781Z,2.65
2018-07-15T12:52:17.263Z,2.80
2018-07-15T12:54:45.876Z,2.35
2018-07-15T12:57:14.346Z,2.50
2018-07-15T12:59:46.193Z,2.50
2018-07-15T13:02:15.750Z,2.62
2018-07-15T13:04:44.181Z,2.60
2018-07-15T13:07:12.638Z,2.70
2018-07-15T13:09:41.143Z,2.87
2018-07-15T13:12:09.582Z,2.80
2018-07-15T13:14:38.000Z,2.62
2018-07-15T13:17:06.516Z,3.10
2018-07-15T13:19:35.185Z,2.70
2018-07-15T13:22:03.609Z,2.90
2018-07-15T13:24:32.909Z,2.85
2018-07-15T13:27:01.390Z,2.70
2018-07-15T13:29:29.939Z,2.60
2018-07-15T13:31:58.458Z,2.50
2018-07-15T13:34:26.935Z,2.60
2018-07-15T13:36:56.065Z,2.67
2018-07-15T13:39:24.596Z,2.50
2018-07-15T13:41:53.131Z,2.90
2018-07-15T13:44:21.538Z,2.52
2018-07-15T13:46:49.980Z,2.30
2018-07-15T13:49:18.505Z,2.35
2018-07-15T13:51:46.974Z,2.22
2018-07-15T13:54:15.478Z,2.40
2018-07-15T13:56:44.005Z,2.12
2018-07-15T13:59:12.465Z,3.08
2018-07-15T14:01:41.015Z,2.10
2018-07-15T14:04:09.713Z,2.65
2018-07-15T14:06:38.324Z,3.35
2018-07-15T14:09:06.986Z,2.70
2018-07-15T14:11:35.494Z,2.27
2018-07-15T14:14:04.268Z,2.27
2018-07-15T14:16:33.346Z,2.10
2018-07-15T14:19:01.849Z,4.37
2018-07-15T14:21:30.362Z,2.92
2018-07-15T14:23:58.790Z,2.25
2018-07-15T14:26:27.364Z,2.50
2018-07-15T14:28:56.041Z,2.60
2018-07-15T14:31:24.948Z,2.25
2018-07-15T14:33:53.384Z,2.50
2018-07-15T14:36:21.891Z,2.80
2018-07-15T14:38:50.353Z,2.87
2018-07-15T14:41:18.850Z,2.27
2018-07-15T14:43:47.378Z,2.62
2018-07-15T14:46:15.920Z,2.40
2018-07-15T14:48:44.438Z,2.17
2018-07-15T14:51:12.898Z,2.70
2018-07-15T14:53:41.425Z,2.45
2018-07-15T14:56:09.928Z,2.95
2018-07-15T14:58:38.341Z,2.50
2018-07-15T15:01:06.902Z,2.60
2018-07-15T15:03:35.360Z,2.75
2018-07-15T15:06:03.841Z,2.33
2018-07-15T15:08:32.301Z,2.65
2018-07-15T15:11:00.729Z,3.12
2018-07-15T15:13:29.206Z,2.40
2018-07-15T15:15:57.881Z,2.80
2018-07-15T15:18:26.335Z,2.58
2018-07-15T15:20:55.743Z,2.85
2018-07-15T15:23:24.187Z,2.50
2018-07-15T15:25:52.730Z,2.55
2018-07-15T15:28:21.187Z,2.08
2018-07-15T15:30:49.668Z,2.65
2018-07-15T15:33:18.138Z,2.60
2018-07-15T15:35:46.578Z,2.50
2018-07-15T15:38:15.162Z,2.33
2018-07-15T15:40:43.664Z,2.65
2018-07-15T15:43:12.114Z,2.33
2018-07-15T15:45:40.541Z,2.30
2018-07-15T15:48:08.981Z,2.45
2018-07-15T15:50:38.429Z,2.30
2018-07-15T15:53:06.901Z,2.20
2018-07-15T15:55:35.409Z,2.30
2018-07-15T15:58:03.877Z,2.70
2018-07-15T16:00:32.258Z,2.60
2018-07-15T16:03:00.885Z,2.30
2018-07-15T16:05:29.362Z,2.42
2018-07-15T16:07:58.857Z,2.42
2018-07-15T16:10:27.371Z,1.80
2018-07-15T16:12:55.908Z,2.20
2018-07-15T16:15:24.381Z,2.30
2018-07-15T16:17:52.897Z,2.40
2018-07-15T16:20:21.350Z,1.92
2018-07-15T16:22:49.738Z,2.00
2018-07-15T16:25:18.145Z,2.10
2018-07-15T16:27:46.601Z,2.27
2018-07-15T16:30:16.418Z,1.95
2018-07-15T16:32:44.815Z,2.50
2018-07-15T16:35:13.234Z,2.40
2018-07-15T16:37:41.625Z,2.08
2018-07-15T16:40:10.065Z,2.15
2018-07-15T16:42:38.578Z,2.25
2018-07-15T16:45:07.035Z,1.95
2018-07-15T16:47:35.513Z,2.42
2018-07-15T16:50:04.056Z,2.02
2018-07-15T16:52:33.477Z,2.20
2018-07-15T16:55:02.190Z,1.77
2018-07-15T16:57:30.664Z,2.02
2018-07-15T16:59:59.211Z,2.05
2018-07-15T17:02:27.632Z,2.40
2018-07-15T17:04:56.227Z,2.10
2018-07-15T17:07:24.596Z,1.90
2018-07-15T17:09:52.995Z,2.20
2018-07-15T17:12:21.416Z,2.30
2018-07-15T17:14:50.629Z,2.10
2018-07-15T17:17:19.027Z,2.40
2018-07-15T17:19:47.458Z,1.95
2018-07-15T17:22:15.906Z,1.90
2018-07-15T17:24:44.329Z,1.80
2018-07-15T17:27:12.745Z,2.40
2018-07-15T17:29:41.240Z,2.20
2018-07-15T17:32:09.643Z,2.45
2018-07-15T17:34:38.077Z,2.22
2018-07-15T17:37:06.542Z,2.33
2018-07-15T17:39:34.974Z,2.30
2018-07-15T17:42:03.418Z,2.10
2018-07-15T17:44:31.897Z,2.00
2018-07-15T17:47:00.263Z,2.00
2018-07-15T17:49:28.801Z,2.27
2018-07-15T17:52:03.810Z,2.20
2018-07-15T17:54:32.266Z,1.80
2018-07-15T17:57:00.664Z,2.10
2018-07-15T17:59:29.109Z,1.87
2018-07-15T18:01:57.497Z,2.02
2018-07-15T18:04:25.993Z,2.00
2018-07-15T18:06:54.346Z,2.00
2018-07-15T18:09:22.806Z,1.67
2018-07-15T18:11:51.241Z,1.90
2018-07-15T18:14:19.798Z,1.65
2018-07-15T18:16:48.202Z,1.90
2018-07-15T18:19:16.638Z,2.70
2018-07-15T18:21:45.104Z,2.10
2018-07-15T18:24:13.598Z,1.80
2018-07-15T18:26:43.222Z,2.12
2018-07-15T18:29:11.725Z,2.08
2018-07-15T18:31:40.109Z,1.90
2018-07-15T18:34:09.204Z,1.80
2018-07-15T18:36:37.762Z,2.15
2018-07-15T18:39:06.889Z,2.10
2018-07-15T18:41:35.274Z,2.15
2018-07-15T18:44:03.757Z,2.02
2018-07-15T18:46:34.290Z,2.40
2018-07-15T18:49:03.678Z,1.65
2018-07-15T18:51:32.078Z,1.92
2018-07-15T18:54:00.549Z,1.92
2018-07-15T18:56:29.077Z,1.60
2018-07-15T18:58:57.593Z,1.87
2018-07-15T19:01:26.869Z,1.47
2018-07-15T19:03:55.323Z,1.85
2018-07-15T19:06:23.895Z,1.60
2018-07-15T19:08:52.354Z,1.90
2018-07-15T19:11:20.822Z,1.75
2018-07-15T19:13:49.252Z,1.87
2018-07-15T19:16:17.786Z,1.90
2018-07-15T19:18:46.247Z,1.75
2018-07-15T19:21:14.710Z,1.73
2018-07-15T19:23:43.218Z,2.20
2018-07-15T19:26:11.759Z,2.17
2018-07-15T19:28:40.222Z,1.90
2018-07-15T19:31:08.675Z,1.77
2018-07-15T19:33:37.159Z,1.63
2018-07-15T19:36:05.885Z,1.60
2018-07-15T19:38:34.362Z,2.20
2018-07-15T19:41:02.836Z,1.93
2018-07-15T19:43:31.257Z,1.97
2018-07-15T19:45:59.750Z,2.20
2018-07-15T19:48:28.745Z,1.80
2018-07-15T19:50:57.186Z,1.90
2018-07-15T19:53:25.679Z,1.30
2018-07-15T19:55:54.121Z,1.67
2018-07-15T19:58:22.533Z,1.37
2018-07-15T20:00:51.153Z,2.23
2018-07-15T20:03:19.533Z,1.90
2018-07-15T20:05:48.060Z,2.13
2018-07-15T20:08:16.491Z,1.87
2018-07-15T20:10:44.900Z,1.90
2018-07-15T20:13:13.380Z,1.73
2018-07-15T20:15:41.821Z,2.73
2018-07-15T20:18:10.227Z,3.10
2018-07-15T20:20:38.664Z,2.17
2018-07-15T20:23:07.105Z,2.27
2018-07-15T20:25:41.374Z,1.97
2018-07-15T20:28:09.819Z,2.50
2018-07-15T20:30:38.253Z,2.30
2018-07-15T20:33:07.017Z,2.00
2018-07-15T20:35:35.606Z,2.10
2018-07-15T20:38:04.006Z,2.10
2018-07-15T20:40:32.568Z,1.50
2018-07-15T20:43:01.013Z,1.80
2018-07-15T20:45:29.418Z,2.27
2018-07-15T20:47:57.821Z,1.80
2018-07-15T20:50:26.286Z,2.00
2018-07-15T20:52:55.191Z,2.10
2018-07-15T20:55:24.617Z,2.33
2018-07-15T20:57:53.076Z,2.10
2018-07-15T21:00:21.631Z,2.20
2018-07-15T21:02:50.113Z,2.00
2018-07-15T21:05:18.558Z,2.33
2018-07-15T21:07:47.022Z,2.03
2018-07-15T21:10:15.474Z,2.30
2018-07-15T21:12:43.902Z,1.90
2018-07-15T21:15:12.346Z,2.23
2018-07-15T21:17:40.818Z,2.10
2018-07-15T21:20:09.237Z,2.00
2018-07-15T21:22:37.758Z,1.90
2018-07-15T21:25:06.174Z,1.93
2018-07-15T21:27:34.607Z,1.80
2018-07-15T21:30:03.138Z,1.90
2018-07-15T21:32:31.567Z,1.70
2018-07-15T21:35:00.055Z,1.60
2018-07-15T21:37:28.488Z,1.20
2018-07-15T21:39:57.519Z,1.90
2018-07-15T21:42:25.985Z,1.67
2018-07-15T21:44:54.425Z,1.80
2018-07-15T21:47:22.845Z,1.97
2018-07-15T21:49:51.375Z,2.00
2018-07-15T21:52:19.919Z,1.67
2018-07-15T21:54:48.369Z,1.57
2018-07-15T21:57:16.846Z,1.53
2018-07-15T21:59:45.233Z,1.33
2018-07-15T22:02:14.676Z,1.73
2018-07-15T22:04:43.084Z,1.30
2018-07-15T22:07:22.769Z,1.50
2018-07-15T22:10:16.101Z,1.87
2018-07-15T22:12:44.497Z,1.77
2018-07-15T22:15:12.898Z,1.80
2018-07-15T22:17:41.613Z,1.50
2018-07-15T22:20:10.093Z,1.20
2018-07-15T22:22:38.532Z,1.67
2018-07-15T22:25:07.618Z,1.93
2018-07-15T22:27:36.197Z,1.77
2018-07-15T22:30:04.678Z,1.37
2018-07-15T22:32:33.171Z,1.60
2018-07-15T22:35:01.549Z,1.33
2018-07-15T22:37:29.943Z,1.67
2018-07-15T22:39:58.363Z,1.23
2018-07-15T22:42:26.870Z,1.50
2018-07-15T22:44:55.362Z,1.20
2018-07-15T22:47:23.797Z,1.30
2018-07-15T22:49:52.181Z,1.30
2018-07-15T22:52:20.625Z,1.53
2018-07-15T22:54:49.085Z,0.90
2018-07-15T22:57:17.510Z,1.10
2018-07-15T22:59:45.916Z,1.77
2018-07-15T23:02:14.380Z,1.40
2018-07-15T23:05:52.378Z,1.60
2018-07-15T23:08:21.385Z,1.93
2018-07-15T23:10:49.815Z,1.57
2018-07-15T23:13:18.774Z,1.40
2018-07-15T23:15:47.569Z,1.50
2018-07-15T23:18:16.064Z,1.80
2018-07-15T23:20:45.272Z,1.30
2018-07-15T23:23:14.328Z,1.40
2018-07-15T23:25:42.898Z,1.90
2018-07-15T23:28:12.422Z,1.40
2018-07-15T23:30:41.570Z,1.57
2018-07-15T23:33:10.334Z,1.77
2018-07-15T23:35:38.795Z,1.80
2018-07-15T23:38:07.423Z,1.47
2018-07-15T23:40:36.066Z,1.60
2018-07-15T23:43:04.819Z,1.47
2018-07-15T23:45:34.266Z,2.17
2018-07-15T23:48:02.721Z,1.97
2018-07-15T23:50:31.172Z,1.70
2018-07-15T23:52:59.710Z,1.70
2018-07-15T23:55:28.163Z,1.83
2018-07-15T23:57:56.693Z,2.10
